createdAt,value
2018-03-02T00:00:34.107Z,-8.72
2018-03-02T00:02:36.520Z,-8.73
2018-03-02T00:04:39.096Z,-8.73
2018-03-02T00:06:41.695Z,-8.71
2018-03-02T00:08:44.130Z,-8.72
2018-03-02T00:10:46.637Z,-8.68
2018-03-02T00:12:49.169Z,-8.78
2018-03-02T00:14:51.623Z,-8.80
2018-03-02T00:16:54.123Z,-8.81
2018-03-02T00:18:56.587Z,-8.82
2018-03-02T00:20:59.042Z,-8.88
2018-03-02T00:23:01.563Z,-8.87
2018-03-02T00:25:04.025Z,-8.87
2018-03-02T00:27:06.526Z,-8.88
2018-03-02T00:29:08.987Z,-8.98
2018-03-02T00:31:11.505Z,-8.95
2018-03-02T00:33:14.099Z,-8.96
2018-03-02T00:35:16.690Z,-8.92
2018-03-02T00:37:19.120Z,-8.96
2018-03-02T00:39:21.603Z,-8.97
2018-03-02T00:41:24.127Z,-8.99
2018-03-02T00:43:26.577Z,-9.01
2018-03-02T00:45:29.040Z,-9.02
2018-03-02T00:47:31.511Z,-9.09
2018-03-02T00:49:33.972Z,-9.05
2018-03-02T00:51:36.413Z,-9.03
2018-03-02T00:53:38.871Z,-9.02
2018-03-02T00:55:41.380Z,-9.05
2018-03-02T00:57:43.881Z,-9.10
2018-03-02T00:59:46.342Z,-9.10
2018-03-02T01:01:48.812Z,-9.12
2018-03-02T01:03:51.293Z,-9.13
2018-03-02T01:05:53.738Z,-9.14
2018-03-02T01:07:56.505Z,-9.17
2018-03-02T01:09:58.942Z,-9.20
2018-03-02T01:12:01.382Z,-9.22
2018-03-02T01:14:03.845Z,-9.26
2018-03-02T01:16:06.285Z,-9.22
2018-03-02T01:18:08.753Z,-9.23
2018-03-02T01:20:11.218Z,-9.27
2018-03-02T01:22:13.741Z,-9.24
2018-03-02T01:24:16.227Z,-9.20
2018-03-02T01:26:18.681Z,-9.25
2018-03-02T01:28:21.141Z,-9.31
2018-03-02T01:30:23.719Z,-9.31
2018-03-02T01:32:26.226Z,-9.32
2018-03-02T01:34:28.686Z,-9.34
2018-03-02T01:36:31.166Z,-9.39
2018-03-02T01:38:33.637Z,-9.41
2018-03-02T01:40:36.073Z,-9.38
2018-03-02T01:42:38.573Z,-9.39
2018-03-02T01:44:41.053Z,-9.41
2018-03-02T01:46:43.536Z,-9.43
2018-03-02T01:48:46.126Z,-9.44
2018-03-02T01:50:48.637Z,-9.51
2018-03-02T01:52:51.231Z,-9.48
2018-03-02T01:54:53.677Z,-9.53
2018-03-02T01:56:56.212Z,-9.49
2018-03-02T01:58:58.697Z,-9.52
2018-03-02T02:01:01.149Z,-9.51
2018-03-02T02:03:03.609Z,-9.56
2018-03-02T02:05:06.191Z,-9.53
2018-03-02T02:07:08.684Z,-9.52
2018-03-02T02:09:11.190Z,-9.56
2018-03-02T02:11:13.686Z,-9.56
2018-03-02T02:13:16.159Z,-9.62
2018-03-02T02:15:18.657Z,-9.59
2018-03-02T02:17:21.142Z,-9.61
2018-03-02T02:19:23.639Z,-9.61
2018-03-02T02:21:26.090Z,-9.64
2018-03-02T02:23:28.614Z,-9.62
2018-03-02T02:25:31.108Z,-9.68
2018-03-02T02:27:33.552Z,-9.70
2018-03-02T02:29:36.041Z,-9.71
2018-03-02T02:31:38.494Z,-9.76
2018-03-02T02:33:41.022Z,-9.77
2018-03-02T02:35:43.584Z,-9.77
2018-03-02T02:37:46.041Z,-9.76
2018-03-02T02:39:48.574Z,-9.77
2018-03-02T02:41:51.068Z,-9.82
2018-03-02T02:43:53.521Z,-9.81
2018-03-02T02:45:55.977Z,-9.84
2018-03-02T02:47:58.543Z,-9.83
2018-03-02T02:50:01.004Z,-9.89
2018-03-02T02:52:03.470Z,-9.91
2018-03-02T02:54:05.918Z,-9.92
2018-03-02T02:56:08.374Z,-9.93
2018-03-02T02:58:10.906Z,-9.97
2018-03-02T03:00:13.387Z,-10.01
2018-03-02T03:02:15.862Z,-9.98
2018-03-02T03:04:18.385Z,-9.97
2018-03-02T03:06:20.843Z,-9.98
2018-03-02T03:08:23.333Z,-10.03
2018-03-02T03:10:25.951Z,-10.05
2018-03-02T03:12:28.407Z,-10.03
2018-03-02T03:14:30.952Z,-10.06
2018-03-02T03:16:33.408Z,-10.08
2018-03-02T03:18:35.898Z,-10.05
2018-03-02T03:20:38.378Z,-10.05
2018-03-02T03:22:40.854Z,-10.07
2018-03-02T03:24:43.289Z,-10.05
2018-03-02T03:26:45.815Z,-10.08
2018-03-02T03:28:48.270Z,-10.11
2018-03-02T03:30:50.719Z,-10.13
2018-03-02T03:32:53.287Z,-10.10
2018-03-02T03:34:55.888Z,-10.12
2018-03-02T03:36:58.393Z,-10.16
2018-03-02T03:39:00.869Z,-10.16
2018-03-02T03:41:03.306Z,-10.18
2018-03-02T03:43:05.773Z,-10.20
2018-03-02T03:45:08.258Z,-10.21
2018-03-02T03:47:10.708Z,-10.22
2018-03-02T03:49:13.234Z,-10.21
2018-03-02T03:51:15.754Z,-10.26
2018-03-02T03:53:18.175Z,-10.17
2018-03-02T03:55:20.732Z,-10.23
2018-03-02T03:57:23.222Z,-10.26
2018-03-02T03:59:25.699Z,-10.25
2018-03-02T04:01:28.162Z,-10.26
2018-03-02T04:03:30.786Z,-10.31
2018-03-02T04:05:33.228Z,-10.30
2018-03-02T04:07:37.202Z,-10.31
2018-03-02T04:09:39.798Z,-10.37
2018-03-02T04:11:42.283Z,-10.33
2018-03-02T04:13:44.832Z,-10.38
2018-03-02T04:15:47.323Z,-10.41
2018-03-02T04:17:49.874Z,-10.42
2018-03-02T04:19:52.354Z,-10.42
2018-03-02T04:21:54.809Z,-10.42
2018-03-02T04:23:57.263Z,-10.43
2018-03-02T04:25:59.744Z,-10.45
2018-03-02T04:28:02.241Z,-10.45
2018-03-02T04:30:04.735Z,-10.47
2018-03-02T04:32:07.325Z,-10.48
2018-03-02T04:34:09.797Z,-10.47
2018-03-02T04:36:12.259Z,-10.47
2018-03-02T04:38:14.808Z,-10.50
2018-03-02T04:40:17.349Z,-10.51
2018-03-02T04:42:19.858Z,-10.59
2018-03-02T04:44:22.304Z,-10.57
2018-03-02T04:46:24.749Z,-10.57
2018-03-02T04:48:27.340Z,-10.57
2018-03-02T04:50:29.765Z,-10.61
2018-03-02T04:52:32.360Z,-10.61
2018-03-02T04:54:34.855Z,-10.63
2018-03-02T04:56:37.449Z,-10.63
2018-03-02T04:58:39.996Z,-10.67
2018-03-02T05:00:42.548Z,-10.70
2018-03-02T05:02:44.970Z,-10.68
2018-03-02T05:04:47.496Z,-10.68
2018-03-02T05:06:49.945Z,-10.68
2018-03-02T05:08:52.393Z,-10.71
2018-03-02T05:10:54.873Z,-10.72
2018-03-02T05:12:57.334Z,-10.74
2018-03-02T05:14:59.819Z,-10.74
2018-03-02T05:17:02.386Z,-10.78
2018-03-02T05:19:04.904Z,-10.76
2018-03-02T05:21:07.347Z,-10.80
2018-03-02T05:23:09.891Z,-10.79
2018-03-02T05:25:12.420Z,-10.84
2018-03-02T05:27:14.845Z,-10.82
2018-03-02T05:29:17.333Z,-10.84
2018-03-02T05:31:19.838Z,-10.79
2018-03-02T05:33:22.331Z,-10.82
2018-03-02T05:35:24.789Z,-10.84
2018-03-02T05:37:27.262Z,-10.87
2018-03-02T05:39:29.847Z,-10.87
2018-03-02T05:41:32.347Z,-10.86
2018-03-02T05:43:34.805Z,-10.86
2018-03-02T05:45:37.410Z,-10.90
2018-03-02T05:47:39.885Z,-10.90
2018-03-02T05:49:42.366Z,-10.97
2018-03-02T05:51:44.844Z,-10.95
2018-03-02T05:53:47.330Z,-11.00
2018-03-02T05:55:49.830Z,-11.01
2018-03-02T05:57:52.289Z,-10.97
2018-03-02T05:59:54.805Z,-11.04
2018-03-02T06:01:57.300Z,-11.01
2018-03-02T06:03:59.762Z,-11.04
2018-03-02T06:06:02.314Z,-11.07
2018-03-02T06:08:04.819Z,-11.05
2018-03-02T06:10:07.327Z,-11.05
2018-03-02T06:12:09.822Z,-11.04
2018-03-02T06:14:12.400Z,-11.03
2018-03-02T06:16:15.000Z,-11.07
2018-03-02T06:18:17.571Z,-11.06
2018-03-02T06:20:20.005Z,-11.05
2018-03-02T06:22:22.566Z,-11.04
2018-03-02T06:24:25.044Z,-11.04
2018-03-02T06:26:27.550Z,-11.07
2018-03-02T06:28:30.027Z,-11.04
2018-03-02T06:30:32.542Z,-11.04
2018-03-02T06:32:35.034Z,-10.99
2018-03-02T06:34:37.524Z,-10.95
2018-03-02T06:36:40.040Z,-10.96
2018-03-02T06:38:42.553Z,-10.93
2018-03-02T06:40:45.048Z,-10.88
2018-03-02T06:42:47.538Z,-10.94
2018-03-02T06:44:50.030Z,-10.88
2018-03-02T06:46:52.509Z,-10.85
2018-03-02T06:48:55.015Z,-10.77
2018-03-02T06:50:57.572Z,-10.75
2018-03-02T06:53:00.177Z,-10.76
2018-03-02T06:55:02.763Z,-10.71
2018-03-02T06:57:05.197Z,-10.66
2018-03-02T06:59:07.700Z,-10.68
2018-03-02T07:01:10.190Z,-10.66
2018-03-02T07:03:12.710Z,-10.61
2018-03-02T07:05:15.251Z,-10.62
2018-03-02T07:07:17.746Z,-10.65
2018-03-02T07:09:20.192Z,-10.61
2018-03-02T07:11:22.712Z,-10.50
2018-03-02T07:13:25.215Z,-10.52
2018-03-02T07:15:27.695Z,-10.62
2018-03-02T07:17:30.182Z,-10.59
2018-03-02T07:19:32.793Z,-10.51
2018-03-02T07:21:35.325Z,-10.46
2018-03-02T07:23:37.822Z,-10.56
2018-03-02T07:25:40.306Z,-10.42
2018-03-02T07:27:42.757Z,-10.58
2018-03-02T07:29:45.281Z,-10.48
2018-03-02T07:31:47.711Z,-10.40
2018-03-02T07:33:50.255Z,-10.32
2018-03-02T07:35:52.722Z,-10.41
2018-03-02T07:37:55.171Z,-10.48
2018-03-02T07:39:57.733Z,-10.44
2018-03-02T07:42:00.288Z,-10.40
2018-03-02T07:44:02.770Z,-10.46
2018-03-02T07:46:05.230Z,-10.47
2018-03-02T07:48:07.801Z,-10.41
2018-03-02T07:50:11.208Z,-10.36
2018-03-02T07:52:13.736Z,-10.35
2018-03-02T07:54:16.260Z,-10.26
2018-03-02T07:56:18.705Z,-10.22
2018-03-02T07:58:21.167Z,-10.21
2018-03-02T08:00:23.671Z,-10.19
2018-03-02T08:02:26.165Z,-10.29
2018-03-02T08:04:28.703Z,-10.19
2018-03-02T08:06:31.147Z,-10.30
2018-03-02T08:08:33.615Z,-10.21
2018-03-02T08:10:36.146Z,-10.19
2018-03-02T08:12:38.639Z,-10.08
2018-03-02T08:14:41.100Z,-10.21
2018-03-02T08:16:43.578Z,-10.15
2018-03-02T08:18:46.027Z,-10.19
2018-03-02T08:20:48.466Z,-10.05
2018-03-02T08:22:50.993Z,-9.94
2018-03-02T08:24:53.467Z,-9.94
2018-03-02T08:26:55.997Z,-9.89
2018-03-02T08:28:58.476Z,-9.76
2018-03-02T08:31:00.928Z,-9.73
2018-03-02T08:33:03.462Z,-9.71
2018-03-02T08:35:06.061Z,-9.71
2018-03-02T08:37:08.656Z,-9.63
2018-03-02T08:39:11.126Z,-9.61
2018-03-02T08:41:13.637Z,-9.57
2018-03-02T08:43:16.127Z,-9.42
2018-03-02T08:45:18.578Z,-9.54
2018-03-02T08:47:21.017Z,-9.62
2018-03-02T08:49:23.537Z,-9.66
2018-03-02T08:51:26.037Z,-9.71
2018-03-02T08:53:28.491Z,-9.67
2018-03-02T08:55:30.957Z,-9.42
2018-03-02T08:57:34.196Z,-9.47
2018-03-02T08:59:36.738Z,-9.37
2018-03-02T09:01:39.158Z,-9.17
2018-03-02T09:03:41.678Z,-9.10
2018-03-02T09:05:44.163Z,-9.11
2018-03-02T09:07:46.624Z,-9.22
2018-03-02T09:09:49.156Z,-9.15
2018-03-02T09:11:51.588Z,-9.20
2018-03-02T09:13:54.107Z,-9.01
2018-03-02T09:15:56.602Z,-9.05
2018-03-02T09:17:59.106Z,-8.93
2018-03-02T09:20:01.596Z,-9.00
2018-03-02T09:22:04.047Z,-8.90
2018-03-02T09:24:06.511Z,-8.85
2018-03-02T09:26:09.117Z,-8.81
2018-03-02T09:28:11.582Z,-8.79
2018-03-02T09:30:14.131Z,-8.73
2018-03-02T09:32:16.557Z,-8.68
2018-03-02T09:34:19.176Z,-8.58
2018-03-02T09:36:21.688Z,-8.52
2018-03-02T09:38:24.157Z,-8.57
2018-03-02T09:40:26.646Z,-8.70
2018-03-02T09:42:29.138Z,-8.67
2018-03-02T09:44:31.634Z,-8.42
2018-03-02T09:46:34.128Z,-8.36
2018-03-02T09:48:36.626Z,-8.29
2018-03-02T09:50:39.093Z,-8.29
2018-03-02T09:52:41.569Z,-8.18
2018-03-02T09:54:44.063Z,-8.03
2018-03-02T09:56:46.592Z,-7.97
2018-03-02T09:58:49.063Z,-8.12
2018-03-02T10:00:51.628Z,-7.94
2018-03-02T10:02:54.178Z,-7.90
2018-03-02T10:04:56.698Z,-7.98
2018-03-02T10:06:59.133Z,-7.96
2018-03-02T10:09:01.623Z,-7.92
2018-03-02T10:11:04.213Z,-7.81
2018-03-02T10:13:06.727Z,-7.74
2018-03-02T10:15:09.182Z,-7.82
2018-03-02T10:17:11.815Z,-7.72
2018-03-02T10:19:14.327Z,-7.65
2018-03-02T10:21:16.769Z,-7.45
2018-03-02T10:23:19.309Z,-7.48
2018-03-02T10:25:21.808Z,-7.37
2018-03-02T10:27:24.262Z,-7.38
2018-03-02T10:29:26.787Z,-7.40
2018-03-02T10:31:29.313Z,-7.39
2018-03-02T10:33:31.753Z,-7.20
2018-03-02T10:35:34.243Z,-7.02
2018-03-02T10:37:36.823Z,-7.06
2018-03-02T10:39:39.358Z,-6.93
2018-03-02T10:41:41.847Z,-6.80
2018-03-02T10:43:44.292Z,-6.82
2018-03-02T10:45:46.790Z,-6.94
2018-03-02T10:47:49.333Z,-6.87
2018-03-02T10:49:51.811Z,-6.90
2018-03-02T10:51:54.350Z,-6.97
2018-03-02T10:53:56.912Z,-6.77
2018-03-02T10:55:59.418Z,-6.77
2018-03-02T10:58:01.900Z,-6.67
2018-03-02T11:00:04.495Z,-6.61
2018-03-02T11:02:07.050Z,-6.45
2018-03-02T11:04:09.584Z,-6.28
2018-03-02T11:06:12.129Z,-6.44
2018-03-02T11:08:14.571Z,-6.46
2018-03-02T11:10:17.014Z,-6.48
2018-03-02T11:12:19.520Z,-6.42
2018-03-02T11:14:22.016Z,-6.29
2018-03-02T11:16:24.479Z,-6.18
2018-03-02T11:18:26.978Z,-6.20
2018-03-02T11:20:29.525Z,-6.32
2018-03-02T11:22:31.977Z,-6.30
2018-03-02T11:24:34.549Z,-6.14
2018-03-02T11:26:37.019Z,-5.98
2018-03-02T11:28:39.609Z,-5.99
2018-03-02T11:30:42.070Z,-5.94
2018-03-02T11:32:44.494Z,-5.86
2018-03-02T11:34:47.009Z,-5.90
2018-03-02T11:36:49.496Z,-5.91
2018-03-02T11:38:52.068Z,-5.69
2018-03-02T11:40:54.639Z,-5.60
2018-03-02T11:42:57.098Z,-5.59
2018-03-02T11:44:59.690Z,-5.46
2018-03-02T11:47:02.196Z,-5.45
2018-03-02T11:49:04.612Z,-5.38
2018-03-02T11:51:07.109Z,-5.45
2018-03-02T11:53:09.610Z,-5.42
2018-03-02T11:55:12.123Z,-5.40
2018-03-02T11:57:14.601Z,-5.41
2018-03-02T11:59:17.041Z,-5.29
2018-03-02T12:01:19.491Z,-5.19
2018-03-02T12:03:21.973Z,-5.22
2018-03-02T12:05:24.420Z,-5.25
2018-03-02T12:07:26.894Z,-5.15
2018-03-02T12:09:29.465Z,-5.09
2018-03-02T12:11:31.962Z,-4.99
2018-03-02T12:13:34.406Z,-5.11
2018-03-02T12:15:36.934Z,-5.09
2018-03-02T12:17:39.414Z,-4.99
2018-03-02T12:19:41.898Z,-4.94
2018-03-02T12:21:44.370Z,-4.90
2018-03-02T12:23:46.825Z,-4.88
2018-03-02T12:25:49.410Z,-4.76
2018-03-02T12:27:52.495Z,-4.72
2018-03-02T12:29:54.968Z,-4.81
2018-03-02T12:31:57.501Z,-4.89
2018-03-02T12:34:00.011Z,-4.88
2018-03-02T12:36:02.574Z,-4.78
2018-03-02T12:38:05.023Z,-4.81
2018-03-02T12:40:07.529Z,-4.61
2018-03-02T12:42:10.016Z,-4.65
2018-03-02T12:44:12.500Z,-4.51
2018-03-02T12:46:14.966Z,-4.59
2018-03-02T12:48:17.549Z,-4.59
2018-03-02T12:50:20.146Z,-4.42
2018-03-02T12:52:22.599Z,-4.39
2018-03-02T12:54:25.129Z,-4.36
2018-03-02T12:56:27.580Z,-4.29
2018-03-02T12:58:30.035Z,-4.36
2018-03-02T13:00:32.546Z,-4.26
2018-03-02T13:02:35.039Z,-4.24
2018-03-02T13:04:37.539Z,-4.15
2018-03-02T13:06:40.057Z,-4.10
2018-03-02T13:08:42.574Z,-4.07
2018-03-02T13:10:45.133Z,-4.17
2018-03-02T13:12:47.600Z,-4.31
2018-03-02T13:14:50.184Z,-4.26
2018-03-02T13:16:52.695Z,-4.15
2018-03-02T13:18:55.209Z,-4.17
2018-03-02T13:20:57.845Z,-4.11
2018-03-02T13:23:00.335Z,-4.20
2018-03-02T13:25:02.796Z,-4.31
2018-03-02T13:27:17.061Z,-4.24
2018-03-02T13:29:19.586Z,-4.23
2018-03-02T13:31:22.185Z,-4.04
2018-03-02T13:33:36.395Z,-3.87
2018-03-02T13:35:38.901Z,-3.97
2018-03-02T13:37:41.435Z,-3.91
2018-03-02T13:39:55.814Z,-3.95
2018-03-02T13:42:13.168Z,-4.01
2018-03-02T13:44:15.645Z,-4.05
2018-03-02T13:46:18.211Z,-4.05
2018-03-02T13:48:41.228Z,-4.15
2018-03-02T13:50:43.760Z,-4.09
2018-03-02T13:52:46.301Z,-4.15
2018-03-02T13:54:48.875Z,-4.08
2018-03-02T13:57:03.116Z,-3.97
2018-03-02T13:59:05.590Z,-4.00
2018-03-02T14:01:08.103Z,-4.00
2018-03-02T14:03:22.296Z,-3.95
2018-03-02T14:05:24.820Z,-3.94
2018-03-02T14:07:27.381Z,-4.06
2018-03-02T14:09:29.956Z,-4.00
2018-03-02T14:11:32.543Z,-3.92
2018-03-02T14:13:35.145Z,-4.00
2018-03-02T14:15:37.645Z,-4.09
2018-03-02T14:17:40.403Z,-4.10
2018-03-02T14:19:42.924Z,-4.10
2018-03-02T14:21:45.410Z,-4.14
2018-03-02T14:23:48.735Z,-4.08
2018-03-02T14:25:51.249Z,-3.92
2018-03-02T14:27:53.756Z,-3.96
2018-03-02T14:29:56.267Z,-4.01
2018-03-02T14:31:58.706Z,-4.06
2018-03-02T14:34:01.188Z,-4.09
2018-03-02T14:36:03.686Z,-4.06
2018-03-02T14:38:06.298Z,-4.01
2018-03-02T14:40:08.801Z,-3.95
2018-03-02T14:42:11.282Z,-3.93
2018-03-02T14:44:13.797Z,-3.89
2018-03-02T14:46:16.261Z,-3.85
2018-03-02T14:48:18.746Z,-3.89
2018-03-02T14:50:21.245Z,-3.82
2018-03-02T14:52:23.763Z,-3.75
2018-03-02T14:54:26.293Z,-3.77
2018-03-02T14:56:28.736Z,-3.76
2018-03-02T14:58:31.210Z,-3.74
2018-03-02T15:00:33.742Z,-3.76
2018-03-02T15:02:36.202Z,-3.76
2018-03-02T15:04:38.685Z,-3.74
2018-03-02T15:06:41.227Z,-3.80
2018-03-02T15:08:43.787Z,-3.77
2018-03-02T15:10:46.315Z,-3.83
2018-03-02T15:12:48.771Z,-3.81
2018-03-02T15:14:51.273Z,-3.84
2018-03-02T15:16:53.754Z,-3.80
2018-03-02T15:18:56.319Z,-3.78
2018-03-02T15:20:58.822Z,-3.77
2018-03-02T15:23:01.507Z,-3.86
2018-03-02T15:25:03.942Z,-3.84
2018-03-02T15:27:06.456Z,-3.89
2018-03-02T15:29:08.932Z,-3.89
2018-03-02T15:31:11.433Z,-3.87
2018-03-02T15:33:13.926Z,-3.91
2018-03-02T15:35:16.416Z,-3.91
2018-03-02T15:37:19.002Z,-3.91
2018-03-02T15:39:21.588Z,-3.91
2018-03-02T15:41:24.134Z,-3.94
2018-03-02T15:43:26.687Z,-3.87
2018-03-02T15:45:29.181Z,-3.83
2018-03-02T15:47:31.662Z,-3.87
2018-03-02T15:49:34.244Z,-3.91
2018-03-02T15:51:36.719Z,-3.96
2018-03-02T15:53:39.262Z,-3.97
2018-03-02T15:55:41.832Z,-3.99
2018-03-02T15:57:44.427Z,-4.02
2018-03-02T15:59:46.923Z,-4.04
2018-03-02T16:01:49.526Z,-4.04
2018-03-02T16:03:51.994Z,-4.09
2018-03-02T16:05:54.497Z,-4.08
2018-03-02T16:07:56.967Z,-4.11
2018-03-02T16:09:59.497Z,-4.11
2018-03-02T16:12:01.944Z,-4.12
2018-03-02T16:14:04.438Z,-4.17
2018-03-02T16:16:06.903Z,-4.22
2018-03-02T16:18:09.478Z,-4.22
2018-03-02T16:20:12.065Z,-4.23
2018-03-02T16:22:14.513Z,-4.27
2018-03-02T16:24:17.037Z,-4.30
2018-03-02T16:26:19.533Z,-4.31
2018-03-02T16:28:22.138Z,-4.35
2018-03-02T16:30:24.597Z,-4.44
2018-03-02T16:32:27.323Z,-4.45
2018-03-02T16:34:29.785Z,-4.46
2018-03-02T16:36:32.301Z,-4.50
2018-03-02T16:38:34.829Z,-4.53
2018-03-02T16:40:37.403Z,-4.57
2018-03-02T16:42:39.897Z,-4.66
2018-03-02T16:44:42.486Z,-4.74
2018-03-02T16:46:45.217Z,-4.82
2018-03-02T16:48:47.754Z,-4.81
2018-03-02T16:50:50.232Z,-4.85
2018-03-02T16:52:52.740Z,-4.89
2018-03-02T16:54:55.359Z,-4.93
2018-03-02T16:56:57.867Z,-4.93
2018-03-02T16:59:00.346Z,-4.93
2018-03-02T17:01:02.851Z,-4.95
2018-03-02T17:03:05.363Z,-5.01
2018-03-02T17:05:07.838Z,-5.03
2018-03-02T17:07:10.329Z,-5.08
2018-03-02T17:09:12.772Z,-5.09
2018-03-02T17:11:15.313Z,-5.14
2018-03-02T17:13:17.850Z,-5.14
2018-03-02T17:15:20.503Z,-5.14
2018-03-02T17:17:23.015Z,-5.22
2018-03-02T17:19:25.546Z,-5.20
2018-03-02T17:21:28.094Z,-5.22
2018-03-02T17:23:30.578Z,-5.29
2018-03-02T17:25:33.103Z,-5.33
2018-03-02T17:27:35.629Z,-5.39
2018-03-02T17:29:38.098Z,-5.39
2018-03-02T17:31:40.683Z,-5.41
2018-03-02T17:33:43.145Z,-5.42
2018-03-02T17:35:45.636Z,-5.46
2018-03-02T17:37:48.097Z,-5.49
2018-03-02T17:39:50.640Z,-5.50
2018-03-02T17:41:53.179Z,-5.45
2018-03-02T17:43:55.819Z,-5.45
2018-03-02T17:45:58.334Z,-5.54
2018-03-02T17:48:00.901Z,-5.61
2018-03-02T17:50:03.486Z,-5.69
2018-03-02T17:52:05.943Z,-5.75
2018-03-02T17:54:08.495Z,-5.75
2018-03-02T17:56:11.034Z,-5.76
2018-03-02T17:58:13.684Z,-5.82
2018-03-02T18:00:16.165Z,-5.86
2018-03-02T18:02:18.768Z,-5.89
2018-03-02T18:04:21.274Z,-5.96
2018-03-02T18:06:23.781Z,-5.96
2018-03-02T18:08:26.264Z,-5.99
2018-03-02T18:10:28.839Z,-5.99
2018-03-02T18:12:31.542Z,-5.98
2018-03-02T18:14:34.032Z,-6.04
2018-03-02T18:16:36.555Z,-6.04
2018-03-02T18:18:39.024Z,-6.07
2018-03-02T18:20:41.511Z,-6.12
2018-03-02T18:22:43.986Z,-6.19
2018-03-02T18:24:46.520Z,-6.19
2018-03-02T18:26:49.094Z,-6.24
2018-03-02T18:28:51.606Z,-6.21
2018-03-02T18:30:54.070Z,-6.18
2018-03-02T18:32:56.571Z,-6.24
2018-03-02T18:34:59.180Z,-6.27
2018-03-02T18:37:01.684Z,-6.32
2018-03-02T18:39:04.269Z,-6.34
2018-03-02T18:41:06.731Z,-6.37
2018-03-02T18:43:09.344Z,-6.38
2018-03-02T18:45:11.951Z,-6.47
2018-03-02T18:47:14.436Z,-6.47
2018-03-02T18:49:17.025Z,-6.49
2018-03-02T18:51:19.625Z,-6.49
2018-03-02T18:53:22.216Z,-6.51
2018-03-02T18:55:24.754Z,-6.52
2018-03-02T18:57:27.235Z,-6.56
2018-03-02T18:59:29.805Z,-6.61
2018-03-02T19:01:32.408Z,-6.71
2018-03-02T19:03:34.900Z,-6.71
2018-03-02T19:05:37.480Z,-6.67
2018-03-02T19:07:40.079Z,-6.65
2018-03-02T19:09:42.681Z,-6.74
2018-03-02T19:11:45.171Z,-6.73
2018-03-02T19:13:47.708Z,-6.73
2018-03-02T19:15:50.200Z,-6.81
2018-03-02T19:17:52.746Z,-6.77
2018-03-02T19:19:55.220Z,-6.83
2018-03-02T19:21:57.743Z,-6.82
2018-03-02T19:24:00.253Z,-6.79
2018-03-02T19:26:02.906Z,-6.73
2018-03-02T19:28:05.418Z,-6.72
2018-03-02T19:30:08.125Z,-6.77
2018-03-02T19:32:10.736Z,-6.81
2018-03-02T19:34:13.281Z,-6.86
2018-03-02T19:36:15.904Z,-6.87
2018-03-02T19:38:18.422Z,-6.93
2018-03-02T19:40:20.935Z,-6.97
2018-03-02T19:42:23.426Z,-6.94
2018-03-02T19:44:26.181Z,-6.98
2018-03-02T19:46:29.046Z,-6.98
2018-03-02T19:48:31.897Z,-7.08
2018-03-02T19:50:34.789Z,-7.10
2018-03-02T19:52:37.381Z,-7.05
2018-03-02T19:54:41.105Z,-7.06
2018-03-02T19:56:43.696Z,-7.06
2018-03-02T19:58:46.205Z,-7.15
2018-03-02T20:00:48.671Z,-7.26
2018-03-02T20:02:51.443Z,-7.29
2018-03-02T20:04:54.088Z,-7.32
2018-03-02T20:06:56.882Z,-7.32
2018-03-02T20:08:59.666Z,-7.26
2018-03-02T20:11:02.216Z,-7.33
2018-03-02T20:13:04.786Z,-7.29
2018-03-02T20:15:07.282Z,-7.29
2018-03-02T20:17:10.015Z,-7.37
2018-03-02T20:19:12.867Z,-7.44
2018-03-02T20:21:15.670Z,-7.40
2018-03-02T20:23:18.490Z,-7.37
2018-03-02T20:25:21.306Z,-7.40
2018-03-02T20:27:24.181Z,-7.42
2018-03-02T20:29:26.755Z,-7.55
2018-03-02T20:31:29.565Z,-7.45
2018-03-02T20:33:32.350Z,-7.39
2018-03-02T20:35:35.231Z,-7.36
2018-03-02T20:37:37.760Z,-7.30
2018-03-02T20:39:40.262Z,-7.37
2018-03-02T20:41:42.756Z,-7.44
2018-03-02T20:43:45.336Z,-7.53
2018-03-02T20:45:47.867Z,-7.49
2018-03-02T20:47:50.407Z,-7.54
2018-03-02T20:49:52.932Z,-7.55
2018-03-02T20:51:55.622Z,-7.66
2018-03-02T20:53:58.246Z,-7.71
2018-03-02T20:56:00.807Z,-7.67
2018-03-02T20:58:03.386Z,-7.68
2018-03-02T21:00:05.876Z,-7.64
2018-03-02T21:02:08.493Z,-7.72
2018-03-02T21:04:11.068Z,-7.71
2018-03-02T21:06:13.668Z,-7.77
2018-03-02T21:08:16.166Z,-7.79
2018-03-02T21:10:18.634Z,-7.79
2018-03-02T21:12:21.166Z,-7.85
2018-03-02T21:14:23.716Z,-7.90
2018-03-02T21:16:26.281Z,-7.90
2018-03-02T21:18:28.767Z,-7.86
2018-03-02T21:20:31.268Z,-7.86
2018-03-02T21:22:33.762Z,-7.78
2018-03-02T21:24:36.270Z,-7.82
2018-03-02T21:26:38.847Z,-7.86
2018-03-02T21:28:41.338Z,-7.89
2018-03-02T21:30:43.916Z,-7.83
2018-03-02T21:32:46.431Z,-7.83
2018-03-02T21:34:49.027Z,-7.92
2018-03-02T21:36:51.522Z,-7.89
2018-03-02T21:38:54.148Z,-7.80
2018-03-02T21:40:56.688Z,-7.76
2018-03-02T21:42:59.238Z,-7.75
2018-03-02T21:45:01.816Z,-7.71
2018-03-02T21:47:04.321Z,-7.72
2018-03-02T21:49:06.837Z,-7.78
2018-03-02T21:51:09.409Z,-7.77
2018-03-02T21:53:11.922Z,-7.71
2018-03-02T21:55:14.438Z,-7.72
2018-03-02T21:57:16.926Z,-7.69
2018-03-02T21:59:19.488Z,-7.70
2018-03-02T22:01:22.022Z,-7.71
2018-03-02T22:03:24.521Z,-7.66
2018-03-02T22:05:27.071Z,-7.65
2018-03-02T22:07:29.581Z,-7.63
2018-03-02T22:09:32.040Z,-7.67
2018-03-02T22:11:34.607Z,-7.66
2018-03-02T22:13:37.073Z,-7.76
2018-03-02T22:15:39.675Z,-7.79
2018-03-02T22:17:42.272Z,-7.79
2018-03-02T22:19:44.795Z,-7.81
2018-03-02T22:21:47.366Z,-7.81
2018-03-02T22:23:49.972Z,-7.84
2018-03-02T22:25:52.547Z,-7.86
2018-03-02T22:27:55.025Z,-7.83
2018-03-02T22:29:57.576Z,-7.84
2018-03-02T22:32:00.054Z,-7.91
2018-03-02T22:34:02.521Z,-7.91
2018-03-02T22:36:05.121Z,-7.93
2018-03-02T22:38:07.599Z,-8.01
2018-03-02T22:40:10.108Z,-7.99
2018-03-02T22:42:12.623Z,-7.87
2018-03-02T22:44:15.102Z,-7.89
2018-03-02T22:46:17.562Z,-7.85
2018-03-02T22:48:20.111Z,-7.93
2018-03-02T22:50:22.611Z,-7.82
2018-03-02T22:52:25.097Z,-7.80
2018-03-02T22:54:27.616Z,-7.81
2018-03-02T22:56:30.151Z,-7.79
2018-03-02T22:58:32.743Z,-7.87
2018-03-02T23:00:35.173Z,-7.89
2018-03-02T23:02:37.738Z,-7.83
2018-03-02T23:04:40.292Z,-7.90
2018-03-02T23:06:42.759Z,-7.91
2018-03-02T23:08:45.232Z,-7.92
2018-03-02T23:10:47.737Z,-7.93
2018-03-02T23:12:50.246Z,-7.96
2018-03-02T23:14:52.692Z,-7.96
2018-03-02T23:16:55.185Z,-7.99
2018-03-02T23:18:57.677Z,-8.05
2018-03-02T23:21:00.168Z,-8.13
2018-03-02T23:23:02.622Z,-8.19
2018-03-02T23:25:05.162Z,-8.26
2018-03-02T23:27:07.668Z,-8.31
2018-03-02T23:29:10.123Z,-8.39
2018-03-02T23:31:12.551Z,-8.40
2018-03-02T23:33:15.128Z,-8.35
2018-03-02T23:35:17.579Z,-8.41
2018-03-02T23:37:20.114Z,-8.53
2018-03-02T23:39:22.633Z,-8.55
2018-03-02T23:41:25.104Z,-8.48
2018-03-02T23:43:27.592Z,-8.46
2018-03-02T23:45:30.087Z,-8.46
2018-03-02T23:47:32.579Z,-8.43
2018-03-02T23:49:35.107Z,-8.38
2018-03-02T23:51:37.549Z,-8.37
2018-03-02T23:53:40.059Z,-8.29
2018-03-02T23:55:42.548Z,-8.25
2018-03-02T23:57:45.048Z,-8.27
2018-03-02T23:59:47.537Z,-8.34
